sensor_id;sensor_type;location;lat;lon;timestamp;P1;durP1;ratioP1;P2;durP2;ratioP2
16512;SDS011;8369;48.030;11.598;2023-10-31T00:02:16;0.60;;;0.53;;
16512;SDS011;8369;48.030;11.598;2023-10-31T00:04:42;0.63;;;0.63;;
16512;SDS011;8369;48.030;11.598;2023-10-31T00:07:08;0.50;;;0.50;;
16512;SDS011;8369;48.030;11.598;2023-10-31T00:09:34;0.60;;;0.60;;
16512;SDS011;8369;48.030;11.598;2023-10-31T00:12:00;0.57;;;0.57;;
16512;SDS011;8369;48.030;11.598;2023-10-31T00:14:26;0.33;;;0.33;;
16512;SDS011;8369;48.030;11.598;2023-10-31T00:16:53;0.50;;;0.50;;
16512;SDS011;8369;48.030;11.598;2023-10-31T00:19:19;0.50;;;0.50;;
16512;SDS011;8369;48.030;11.598;2023-10-31T00:21:45;0.90;;;0.70;;
16512;SDS011;8369;48.030;11.598;2023-10-31T00:24:11;0.50;;;0.50;;
16512;SDS011;8369;48.030;11.598;2023-10-31T00:26:37;1.23;;;0.70;;
16512;SDS011;8369;48.030;11.598;2023-10-31T00:29:03;0.50;;;0.50;;
16512;SDS011;8369;48.030;11.598;2023-10-31T00:31:29;1.80;;;0.73;;
16512;SDS011;8369;48.030;11.598;2023-10-31T00:33:55;0.40;;;0.40;;
16512;SDS011;8369;48.030;11.598;2023-10-31T00:36:22;0.87;;;0.60;;
16512;SDS011;8369;48.030;11.598;2023-10-31T00:38:48;0.53;;;0.53;;
16512;SDS011;8369;48.030;11.598;2023-10-31T00:41:15;0.40;;;0.40;;
16512;SDS011;8369;48.030;11.598;2023-10-31T00:43:40;0.50;;;0.50;;
16512;SDS011;8369;48.030;11.598;2023-10-31T00:46:08;0.40;;;0.40;;
16512;SDS011;8369;48.030;11.598;2023-10-31T00:48:33;0.40;;;0.40;;
16512;SDS011;8369;48.030;11.598;2023-10-31T00:51:04;0.50;;;0.50;;
16512;SDS011;8369;48.030;11.598;2023-10-31T00:53:30;1.03;;;0.60;;
16512;SDS011;8369;48.030;11.598;2023-10-31T00:55:56;0.60;;;0.60;;
16512;SDS011;8369;48.030;11.598;2023-10-31T00:58:23;0.50;;;0.50;;
16512;SDS011;8369;48.030;11.598;2023-10-31T01:00:48;0.50;;;0.50;;
16512;SDS011;8369;48.030;11.598;2023-10-31T01:03:14;0.97;;;0.53;;
16512;SDS011;8369;48.030;11.598;2023-10-31T01:05:42;0.60;;;0.60;;
16512;SDS011;8369;48.030;11.598;2023-10-31T01:08:08;0.60;;;0.60;;
16512;SDS011;8369;48.030;11.598;2023-10-31T01:10:34;0.73;;;0.50;;
16512;SDS011;8369;48.030;11.598;2023-10-31T01:13:00;0.57;;;0.57;;
16512;SDS011;8369;48.030;11.598;2023-10-31T01:15:26;0.60;;;0.60;;
16512;SDS011;8369;48.030;11.598;2023-10-31T01:17:52;0.40;;;0.40;;
16512;SDS011;8369;48.030;11.598;2023-10-31T01:20:18;0.73;;;0.73;;
16512;SDS011;8369;48.030;11.598;2023-10-31T01:22:44;0.57;;;0.57;;
16512;SDS011;8369;48.030;11.598;2023-10-31T01:25:10;0.53;;;0.53;;
16512;SDS011;8369;48.030;11.598;2023-10-31T01:27:36;0.30;;;0.30;;
16512;SDS011;8369;48.030;11.598;2023-10-31T01:30:02;0.40;;;0.40;;
16512;SDS011;8369;48.030;11.598;2023-10-31T01:32:29;1.00;;;0.50;;
16512;SDS011;8369;48.030;11.598;2023-10-31T01:34:54;0.63;;;0.40;;
16512;SDS011;8369;48.030;11.598;2023-10-31T01:37:20;3.80;;;0.60;;
16512;SDS011;8369;48.030;11.598;2023-10-31T01:39:46;0.50;;;0.50;;
16512;SDS011;8369;48.030;11.598;2023-10-31T01:42:14;0.30;;;0.30;;
16512;SDS011;8369;48.030;11.598;2023-10-31T01:44:41;0.87;;;0.40;;
16512;SDS011;8369;48.030;11.598;2023-10-31T01:47:07;0.50;;;0.50;;
16512;SDS011;8369;48.030;11.598;2023-10-31T01:49:34;0.40;;;0.40;;
16512;SDS011;8369;48.030;11.598;2023-10-31T01:52:03;0.40;;;0.40;;
16512;SDS011;8369;48.030;11.598;2023-10-31T01:54:31;2.10;;;0.53;;
16512;SDS011;8369;48.030;11.598;2023-10-31T01:57:00;0.40;;;0.40;;
16512;SDS011;8369;48.030;11.598;2023-10-31T01:59:27;0.47;;;0.33;;
16512;SDS011;8369;48.030;11.598;2023-10-31T02:01:57;0.50;;;0.50;;
16512;SDS011;8369;48.030;11.598;2023-10-31T02:04:26;0.37;;;0.20;;
16512;SDS011;8369;48.030;11.598;2023-10-31T02:06:52;0.40;;;0.40;;
16512;SDS011;8369;48.030;11.598;2023-10-31T02:09:19;0.30;;;0.30;;
16512;SDS011;8369;48.030;11.598;2023-10-31T02:11:49;0.20;;;0.20;;
16512;SDS011;8369;48.030;11.598;2023-10-31T02:14:15;0.40;;;0.40;;
16512;SDS011;8369;48.030;11.598;2023-10-31T02:16:41;0.33;;;0.33;;
16512;SDS011;8369;48.030;11.598;2023-10-31T02:19:08;0.40;;;0.40;;
16512;SDS011;8369;48.030;11.598;2023-10-31T02:21:38;0.30;;;0.30;;
16512;SDS011;8369;48.030;11.598;2023-10-31T02:24:05;0.37;;;0.37;;
16512;SDS011;8369;48.030;11.598;2023-10-31T02:26:32;0.30;;;0.30;;
16512;SDS011;8369;48.030;11.598;2023-10-31T02:28:59;0.70;;;0.70;;
16512;SDS011;8369;48.030;11.598;2023-10-31T02:31:26;0.67;;;0.67;;
16512;SDS011;8369;48.030;11.598;2023-10-31T02:33:52;0.50;;;0.50;;
16512;SDS011;8369;48.030;11.598;2023-10-31T02:36:18;0.47;;;0.47;;
16512;SDS011;8369;48.030;11.598;2023-10-31T02:38:45;0.50;;;0.50;;
16512;SDS011;8369;48.030;11.598;2023-10-31T02:41:12;0.40;;;0.40;;
16512;SDS011;8369;48.030;11.598;2023-10-31T02:43:39;0.50;;;0.50;;
16512;SDS011;8369;48.030;11.598;2023-10-31T02:46:05;0.53;;;0.50;;
16512;SDS011;8369;48.030;11.598;2023-10-31T02:48:31;0.30;;;0.30;;
16512;SDS011;8369;48.030;11.598;2023-10-31T02:51:04;0.40;;;0.40;;
16512;SDS011;8369;48.030;11.598;2023-10-31T02:53:30;0.50;;;0.50;;
16512;SDS011;8369;48.030;11.598;2023-10-31T02:55:56;0.77;;;0.77;;
16512;SDS011;8369;48.030;11.598;2023-10-31T02:58:22;0.63;;;0.63;;
16512;SDS011;8369;48.030;11.598;2023-10-31T03:00:48;0.50;;;0.50;;
16512;SDS011;8369;48.030;11.598;2023-10-31T03:03:14;1.03;;;0.43;;
16512;SDS011;8369;48.030;11.598;2023-10-31T03:05:41;0.40;;;0.40;;
16512;SDS011;8369;48.030;11.598;2023-10-31T03:08:07;0.87;;;0.53;;
16512;SDS011;8369;48.030;11.598;2023-10-31T03:10:35;0.50;;;0.50;;
16512;SDS011;8369;48.030;11.598;2023-10-31T03:13:03;0.80;;;0.80;;
16512;SDS011;8369;48.030;11.598;2023-10-31T03:15:29;0.80;;;0.80;;
16512;SDS011;8369;48.030;11.598;2023-10-31T03:17:55;0.27;;;0.27;;
16512;SDS011;8369;48.030;11.598;2023-10-31T03:20:21;0.57;;;0.50;;
16512;SDS011;8369;48.030;11.598;2023-10-31T03:22:47;0.57;;;0.57;;
16512;SDS011;8369;48.030;11.598;2023-10-31T03:25:14;0.57;;;0.57;;
16512;SDS011;8369;48.030;11.598;2023-10-31T03:27:40;0.70;;;0.70;;
16512;SDS011;8369;48.030;11.598;2023-10-31T03:30:06;0.40;;;0.40;;
16512;SDS011;8369;48.030;11.598;2023-10-31T03:32:32;0.57;;;0.57;;
16512;SDS011;8369;48.030;11.598;2023-10-31T03:34:58;0.50;;;0.50;;
16512;SDS011;8369;48.030;11.598;2023-10-31T03:37:24;0.50;;;0.50;;
16512;SDS011;8369;48.030;11.598;2023-10-31T03:39:50;0.40;;;0.40;;
16512;SDS011;8369;48.030;11.598;2023-10-31T03:42:17;2.63;;;0.57;;
16512;SDS011;8369;48.030;11.598;2023-10-31T03:44:43;0.50;;;0.50;;
16512;SDS011;8369;48.030;11.598;2023-10-31T03:47:09;0.33;;;0.33;;
16512;SDS011;8369;48.030;11.598;2023-10-31T03:49:42;1.43;;;0.43;;
16512;SDS011;8369;48.030;11.598;2023-10-31T03:52:08;0.57;;;0.57;;
16512;SDS011;8369;48.030;11.598;2023-10-31T03:54:34;0.50;;;0.50;;
16512;SDS011;8369;48.030;11.598;2023-10-31T03:57:00;0.30;;;0.30;;
16512;SDS011;8369;48.030;11.598;2023-10-31T03:59:26;0.50;;;0.50;;
16512;SDS011;8369;48.030;11.598;2023-10-31T04:01:53;0.40;;;0.40;;
16512;SDS011;8369;48.030;11.598;2023-10-31T04:04:20;0.40;;;0.40;;
16512;SDS011;8369;48.030;11.598;2023-10-31T04:06:46;0.53;;;0.53;;
16512;SDS011;8369;48.030;11.598;2023-10-31T04:09:12;0.70;;;0.70;;
16512;SDS011;8369;48.030;11.598;2023-10-31T04:11:39;0.50;;;0.50;;
16512;SDS011;8369;48.030;11.598;2023-10-31T04:14:06;0.67;;;0.63;;
16512;SDS011;8369;48.030;11.598;2023-10-31T04:16:37;2.20;;;0.70;;
16512;SDS011;8369;48.030;11.598;2023-10-31T04:19:04;0.70;;;0.70;;
16512;SDS011;8369;48.030;11.598;2023-10-31T04:21:30;0.70;;;0.70;;
16512;SDS011;8369;48.030;11.598;2023-10-31T04:23:55;1.03;;;0.93;;
16512;SDS011;8369;48.030;11.598;2023-10-31T04:26:22;1.70;;;1.10;;
16512;SDS011;8369;48.030;11.598;2023-10-31T04:28:47;1.10;;;1.00;;
16512;SDS011;8369;48.030;11.598;2023-10-31T04:31:14;1.00;;;0.90;;
16512;SDS011;8369;48.030;11.598;2023-10-31T04:33:40;0.60;;;0.60;;
16512;SDS011;8369;48.030;11.598;2023-10-31T04:36:06;0.80;;;0.80;;
16512;SDS011;8369;48.030;11.598;2023-10-31T04:38:32;0.93;;;0.93;;
16512;SDS011;8369;48.030;11.598;2023-10-31T04:41:01;1.30;;;1.07;;
16512;SDS011;8369;48.030;11.598;2023-10-31T04:43:27;1.70;;;0.97;;
16512;SDS011;8369;48.030;11.598;2023-10-31T04:45:53;1.30;;;0.90;;
16512;SDS011;8369;48.030;11.598;2023-10-31T04:48:20;0.83;;;0.83;;
16512;SDS011;8369;48.030;11.598;2023-10-31T04:50:45;1.13;;;1.03;;
16512;SDS011;8369;48.030;11.598;2023-10-31T04:53:12;1.20;;;1.10;;
16512;SDS011;8369;48.030;11.598;2023-10-31T04:55:38;3.17;;;2.40;;
16512;SDS011;8369;48.030;11.598;2023-10-31T04:58:04;1.47;;;1.37;;
16512;SDS011;8369;48.030;11.598;2023-10-31T05:00:30;2.93;;;2.13;;
16512;SDS011;8369;48.030;11.598;2023-10-31T05:02:56;4.73;;;2.77;;
16512;SDS011;8369;48.030;11.598;2023-10-31T05:05:23;1.20;;;1.10;;
16512;SDS011;8369;48.030;11.598;2023-10-31T05:07:49;2.27;;;1.97;;
16512;SDS011;8369;48.030;11.598;2023-10-31T05:10:15;3.27;;;2.37;;
16512;SDS011;8369;48.030;11.598;2023-10-31T05:12:41;9.73;;;5.50;;
16512;SDS011;8369;48.030;11.598;2023-10-31T05:15:07;3.40;;;2.43;;
16512;SDS011;8369;48.030;11.598;2023-10-31T05:17:34;1.80;;;1.67;;
16512;SDS011;8369;48.030;11.598;2023-10-31T05:19:59;2.53;;;1.00;;
16512;SDS011;8369;48.030;11.598;2023-10-31T05:22:25;2.10;;;0.67;;
16512;SDS011;8369;48.030;11.598;2023-10-31T05:24:52;1.80;;;0.90;;
16512;SDS011;8369;48.030;11.598;2023-10-31T05:27:18;0.80;;;0.70;;
16512;SDS011;8369;48.030;11.598;2023-10-31T05:29:44;0.70;;;0.70;;
16512;SDS011;8369;48.030;11.598;2023-10-31T05:32:10;0.70;;;0.70;;
16512;SDS011;8369;48.030;11.598;2023-10-31T05:34:36;0.80;;;0.80;;
16512;SDS011;8369;48.030;11.598;2023-10-31T05:37:02;1.50;;;0.93;;
16512;SDS011;8369;48.030;11.598;2023-10-31T05:39:32;0.70;;;0.70;;
16512;SDS011;8369;48.030;11.598;2023-10-31T05:42:06;1.57;;;0.70;;
16512;SDS011;8369;48.030;11.598;2023-10-31T05:44:31;2.50;;;1.10;;
16512;SDS011;8369;48.030;11.598;2023-10-31T05:46:58;0.70;;;0.70;;
16512;SDS011;8369;48.030;11.598;2023-10-31T05:49:25;1.50;;;0.90;;
16512;SDS011;8369;48.030;11.598;2023-10-31T05:51:51;0.97;;;0.87;;
16512;SDS011;8369;48.030;11.598;2023-10-31T05:54:18;1.00;;;1.00;;
16512;SDS011;8369;48.030;11.598;2023-10-31T05:56:44;0.80;;;0.80;;
16512;SDS011;8369;48.030;11.598;2023-10-31T05:59:13;0.80;;;0.80;;
16512;SDS011;8369;48.030;11.598;2023-10-31T06:01:39;0.80;;;0.80;;
16512;SDS011;8369;48.030;11.598;2023-10-31T06:04:05;1.10;;;1.00;;
16512;SDS011;8369;48.030;11.598;2023-10-31T06:06:32;2.00;;;1.10;;
16512;SDS011;8369;48.030;11.598;2023-10-31T06:09:02;1.53;;;1.20;;
16512;SDS011;8369;48.030;11.598;2023-10-31T06:11:28;0.93;;;0.87;;
16512;SDS011;8369;48.030;11.598;2023-10-31T06:13:54;1.07;;;1.00;;
16512;SDS011;8369;48.030;11.598;2023-10-31T06:16:21;0.90;;;0.90;;
16512;SDS011;8369;48.030;11.598;2023-10-31T06:18:47;0.70;;;0.70;;
16512;SDS011;8369;48.030;11.598;2023-10-31T06:21:13;0.90;;;0.90;;
16512;SDS011;8369;48.030;11.598;2023-10-31T06:23:39;1.00;;;1.00;;
16512;SDS011;8369;48.030;11.598;2023-10-31T06:26:08;1.17;;;0.90;;
16512;SDS011;8369;48.030;11.598;2023-10-31T06:28:34;1.60;;;1.10;;
16512;SDS011;8369;48.030;11.598;2023-10-31T06:31:03;2.83;;;1.00;;
16512;SDS011;8369;48.030;11.598;2023-10-31T06:33:29;0.70;;;0.70;;
16512;SDS011;8369;48.030;11.598;2023-10-31T06:35:55;0.70;;;0.70;;
16512;SDS011;8369;48.030;11.598;2023-10-31T06:38:22;1.27;;;1.00;;
16512;SDS011;8369;48.030;11.598;2023-10-31T06:40:48;3.50;;;1.80;;
16512;SDS011;8369;48.030;11.598;2023-10-31T06:43:15;2.07;;;1.70;;
16512;SDS011;8369;48.030;11.598;2023-10-31T06:45:41;2.97;;;1.77;;
16512;SDS011;8369;48.030;11.598;2023-10-31T06:48:07;3.33;;;1.57;;
16512;SDS011;8369;48.030;11.598;2023-10-31T06:50:34;1.20;;;0.97;;
16512;SDS011;8369;48.030;11.598;2023-10-31T06:53:01;1.80;;;1.07;;
16512;SDS011;8369;48.030;11.598;2023-10-31T06:55:26;1.33;;;1.00;;
16512;SDS011;8369;48.030;11.598;2023-10-31T06:57:53;1.10;;;1.00;;
16512;SDS011;8369;48.030;11.598;2023-10-31T07:00:19;1.17;;;0.83;;
16512;SDS011;8369;48.030;11.598;2023-10-31T07:02:46;1.47;;;1.20;;
16512;SDS011;8369;48.030;11.598;2023-10-31T07:05:13;0.80;;;0.80;;
16512;SDS011;8369;48.030;11.598;2023-10-31T07:07:40;1.17;;;0.93;;
16512;SDS011;8369;48.030;11.598;2023-10-31T07:10:06;2.53;;;0.90;;
16512;SDS011;8369;48.030;11.598;2023-10-31T07:12:33;1.33;;;0.90;;
16512;SDS011;8369;48.030;11.598;2023-10-31T07:14:59;1.73;;;0.90;;
16512;SDS011;8369;48.030;11.598;2023-10-31T07:17:25;1.40;;;0.87;;
16512;SDS011;8369;48.030;11.598;2023-10-31T07:19:52;1.07;;;1.00;;
16512;SDS011;8369;48.030;11.598;2023-10-31T07:22:18;1.57;;;0.80;;
16512;SDS011;8369;48.030;11.598;2023-10-31T07:24:44;1.03;;;0.90;;
16512;SDS011;8369;48.030;11.598;2023-10-31T07:27:10;3.37;;;1.20;;
16512;SDS011;8369;48.030;11.598;2023-10-31T07:29:39;1.00;;;1.00;;
16512;SDS011;8369;48.030;11.598;2023-10-31T07:32:07;1.10;;;1.00;;
16512;SDS011;8369;48.030;11.598;2023-10-31T07:34:33;1.97;;;1.27;;
16512;SDS011;8369;48.030;11.598;2023-10-31T07:37:00;1.97;;;1.20;;
16512;SDS011;8369;48.030;11.598;2023-10-31T07:39:26;1.23;;;0.93;;
16512;SDS011;8369;48.030;11.598;2023-10-31T07:41:53;1.10;;;1.03;;
16512;SDS011;8369;48.030;11.598;2023-10-31T07:44:19;1.50;;;1.30;;
16512;SDS011;8369;48.030;11.598;2023-10-31T07:46:45;1.17;;;1.07;;
16512;SDS011;8369;48.030;11.598;2023-10-31T07:49:12;1.53;;;1.10;;
16512;SDS011;8369;48.030;11.598;2023-10-31T07:51:37;1.93;;;1.00;;
16512;SDS011;8369;48.030;11.598;2023-10-31T07:54:04;2.87;;;1.87;;
16512;SDS011;8369;48.030;11.598;2023-10-31T07:56:30;3.60;;;1.83;;
16512;SDS011;8369;48.030;11.598;2023-10-31T07:58:58;2.00;;;1.53;;
16512;SDS011;8369;48.030;11.598;2023-10-31T08:01:25;4.53;;;1.40;;
16512;SDS011;8369;48.030;11.598;2023-10-31T08:03:51;1.80;;;1.43;;
16512;SDS011;8369;48.030;11.598;2023-10-31T08:06:17;1.70;;;1.40;;
16512;SDS011;8369;48.030;11.598;2023-10-31T08:08:43;3.30;;;1.20;;
16512;SDS011;8369;48.030;11.598;2023-10-31T08:11:10;2.87;;;1.30;;
16512;SDS011;8369;48.030;11.598;2023-10-31T08:13:36;2.67;;;1.60;;
16512;SDS011;8369;48.030;11.598;2023-10-31T08:16:07;15.93;;;7.13;;
16512;SDS011;8369;48.030;11.598;2023-10-31T08:18:33;43.27;;;19.10;;
16512;SDS011;8369;48.030;11.598;2023-10-31T08:20:59;51.80;;;22.33;;
16512;SDS011;8369;48.030;11.598;2023-10-31T08:23:28;39.93;;;16.97;;
16512;SDS011;8369;48.030;11.598;2023-10-31T08:25:55;30.47;;;14.77;;
16512;SDS011;8369;48.030;11.598;2023-10-31T08:28:22;22.93;;;11.23;;
16512;SDS011;8369;48.030;11.598;2023-10-31T08:30:48;16.60;;;8.57;;
16512;SDS011;8369;48.030;11.598;2023-10-31T08:33:15;17.77;;;9.70;;
16512;SDS011;8369;48.030;11.598;2023-10-31T08:35:40;13.80;;;8.00;;
16512;SDS011;8369;48.030;11.598;2023-10-31T08:38:08;13.57;;;7.10;;
16512;SDS011;8369;48.030;11.598;2023-10-31T08:40:34;12.13;;;5.53;;
16512;SDS011;8369;48.030;11.598;2023-10-31T08:43:00;5.47;;;3.90;;
16512;SDS011;8369;48.030;11.598;2023-10-31T08:45:26;8.50;;;3.20;;
16512;SDS011;8369;48.030;11.598;2023-10-31T08:47:52;3.93;;;2.80;;
16512;SDS011;8369;48.030;11.598;2023-10-31T08:50:18;5.57;;;2.70;;
16512;SDS011;8369;48.030;11.598;2023-10-31T08:52:44;6.20;;;3.60;;
16512;SDS011;8369;48.030;11.598;2023-10-31T08:55:10;5.10;;;3.63;;
16512;SDS011;8369;48.030;11.598;2023-10-31T08:57:36;5.40;;;3.27;;
16512;SDS011;8369;48.030;11.598;2023-10-31T09:00:02;5.13;;;2.67;;
16512;SDS011;8369;48.030;11.598;2023-10-31T09:02:33;3.30;;;1.90;;
16512;SDS011;8369;48.030;11.598;2023-10-31T09:04:59;2.93;;;1.67;;
16512;SDS011;8369;48.030;11.598;2023-10-31T09:07:26;3.27;;;1.67;;
16512;SDS011;8369;48.030;11.598;2023-10-31T09:09:52;2.00;;;1.20;;
16512;SDS011;8369;48.030;11.598;2023-10-31T09:12:19;1.40;;;0.90;;
16512;SDS011;8369;48.030;11.598;2023-10-31T09:14:45;3.13;;;1.40;;
16512;SDS011;8369;48.030;11.598;2023-10-31T09:17:11;2.27;;;1.03;;
16512;SDS011;8369;48.030;11.598;2023-10-31T09:19:38;2.87;;;1.27;;
16512;SDS011;8369;48.030;11.598;2023-10-31T09:22:04;2.53;;;1.37;;
16512;SDS011;8369;48.030;11.598;2023-10-31T09:24:30;3.63;;;1.03;;
16512;SDS011;8369;48.030;11.598;2023-10-31T09:26:56;2.53;;;1.30;;
16512;SDS011;8369;48.030;11.598;2023-10-31T09:29:22;3.13;;;1.20;;
16512;SDS011;8369;48.030;11.598;2023-10-31T09:31:48;4.87;;;1.33;;
16512;SDS011;8369;48.030;11.598;2023-10-31T09:34:14;2.30;;;1.27;;
16512;SDS011;8369;48.030;11.598;2023-10-31T09:36:41;3.07;;;1.83;;
16512;SDS011;8369;48.030;11.598;2023-10-31T09:39:08;9.13;;;4.73;;
16512;SDS011;8369;48.030;11.598;2023-10-31T09:41:34;10.20;;;6.30;;
16512;SDS011;8369;48.030;11.598;2023-10-31T09:44:00;7.47;;;3.83;;
16512;SDS011;8369;48.030;11.598;2023-10-31T09:46:28;4.20;;;3.03;;
16512;SDS011;8369;48.030;11.598;2023-10-31T09:48:55;4.13;;;1.80;;
16512;SDS011;8369;48.030;11.598;2023-10-31T09:51:21;3.67;;;1.40;;
16512;SDS011;8369;48.030;11.598;2023-10-31T09:53:48;3.87;;;1.10;;
16512;SDS011;8369;48.030;11.598;2023-10-31T09:56:16;2.07;;;1.10;;
16512;SDS011;8369;48.030;11.598;2023-10-31T09:58:42;1.67;;;1.10;;
16512;SDS011;8369;48.030;11.598;2023-10-31T10:01:09;1.93;;;1.10;;
16512;SDS011;8369;48.030;11.598;2023-10-31T10:03:36;3.27;;;1.40;;
16512;SDS011;8369;48.030;11.598;2023-10-31T10:06:03;1.33;;;1.10;;
16512;SDS011;8369;48.030;11.598;2023-10-31T10:08:30;4.50;;;1.97;;
16512;SDS011;8369;48.030;11.598;2023-10-31T10:10:55;12.83;;;5.30;;
16512;SDS011;8369;48.030;11.598;2023-10-31T10:13:22;9.83;;;5.60;;
16512;SDS011;8369;48.030;11.598;2023-10-31T10:15:48;11.10;;;5.30;;
16512;SDS011;8369;48.030;11.598;2023-10-31T10:21:15;3.60;;;2.00;;
16512;SDS011;8369;48.030;11.598;2023-10-31T10:23:42;2.90;;;1.60;;
16512;SDS011;8369;48.030;11.598;2023-10-31T10:26:16;2.90;;;2.17;;
16512;SDS011;8369;48.030;11.598;2023-10-31T10:28:46;1.30;;;1.20;;
16512;SDS011;8369;48.030;11.598;2023-10-31T10:31:14;1.40;;;1.20;;
16512;SDS011;8369;48.030;11.598;2023-10-31T10:33:40;1.40;;;1.30;;
16512;SDS011;8369;48.030;11.598;2023-10-31T10:36:07;7.77;;;1.50;;
16512;SDS011;8369;48.030;11.598;2023-10-31T10:38:35;3.67;;;1.17;;
16512;SDS011;8369;48.030;11.598;2023-10-31T10:41:02;1.10;;;1.00;;
16512;SDS011;8369;48.030;11.598;2023-10-31T10:43:33;1.20;;;1.10;;
16512;SDS011;8369;48.030;11.598;2023-10-31T10:46:04;3.73;;;1.33;;
16512;SDS011;8369;48.030;11.598;2023-10-31T10:48:32;3.03;;;1.17;;
16512;SDS011;8369;48.030;11.598;2023-10-31T10:51:08;2.60;;;1.70;;
16512;SDS011;8369;48.030;11.598;2023-10-31T10:53:54;5.87;;;2.07;;
16512;SDS011;8369;48.030;11.598;2023-10-31T10:56:25;2.43;;;1.77;;
16512;SDS011;8369;48.030;11.598;2023-10-31T10:59:07;5.57;;;1.80;;
16512;SDS011;8369;48.030;11.598;2023-10-31T11:01:40;4.70;;;2.40;;
16512;SDS011;8369;48.030;11.598;2023-10-31T11:04:08;3.33;;;2.03;;
16512;SDS011;8369;48.030;11.598;2023-10-31T11:06:36;2.17;;;1.43;;
16512;SDS011;8369;48.030;11.598;2023-10-31T11:09:04;3.73;;;1.30;;
16512;SDS011;8369;48.030;11.598;2023-10-31T11:11:34;1.90;;;1.07;;
16512;SDS011;8369;48.030;11.598;2023-10-31T11:14:01;1.93;;;1.37;;
16512;SDS011;8369;48.030;11.598;2023-10-31T11:16:37;4.13;;;2.10;;
16512;SDS011;8369;48.030;11.598;2023-10-31T11:19:07;3.43;;;1.77;;
16512;SDS011;8369;48.030;11.598;2023-10-31T11:21:34;3.53;;;2.20;;
16512;SDS011;8369;48.030;11.598;2023-10-31T11:24:00;4.17;;;2.33;;
16512;SDS011;8369;48.030;11.598;2023-10-31T11:26:30;4.07;;;1.93;;
16512;SDS011;8369;48.030;11.598;2023-10-31T11:29:06;3.20;;;2.00;;
16512;SDS011;8369;48.030;11.598;2023-10-31T11:31:35;5.93;;;2.67;;
16512;SDS011;8369;48.030;11.598;2023-10-31T11:34:02;4.77;;;2.57;;
16512;SDS011;8369;48.030;11.598;2023-10-31T11:36:30;3.03;;;2.00;;
16512;SDS011;8369;48.030;11.598;2023-10-31T11:39:14;4.57;;;2.00;;
16512;SDS011;8369;48.030;11.598;2023-10-31T11:41:45;4.87;;;1.93;;
16512;SDS011;8369;48.030;11.598;2023-10-31T11:44:15;7.23;;;3.03;;
16512;SDS011;8369;48.030;11.598;2023-10-31T11:46:41;4.17;;;2.90;;
16512;SDS011;8369;48.030;11.598;2023-10-31T11:49:08;7.03;;;3.23;;
16512;SDS011;8369;48.030;11.598;2023-10-31T11:51:34;10.57;;;3.47;;
16512;SDS011;8369;48.030;11.598;2023-10-31T11:54:01;5.57;;;2.70;;
16512;SDS011;8369;48.030;11.598;2023-10-31T11:56:28;3.57;;;2.37;;
16512;SDS011;8369;48.030;11.598;2023-10-31T11:58:55;6.30;;;2.90;;
16512;SDS011;8369;48.030;11.598;2023-10-31T12:01:22;5.43;;;2.67;;
16512;SDS011;8369;48.030;11.598;2023-10-31T12:03:48;4.83;;;2.30;;
16512;SDS011;8369;48.030;11.598;2023-10-31T12:06:15;4.13;;;1.90;;
16512;SDS011;8369;48.030;11.598;2023-10-31T12:08:43;3.03;;;1.50;;
16512;SDS011;8369;48.030;11.598;2023-10-31T12:11:11;1.90;;;1.50;;
16512;SDS011;8369;48.030;11.598;2023-10-31T12:13:42;2.97;;;1.67;;
16512;SDS011;8369;48.030;11.598;2023-10-31T12:16:18;5.23;;;1.77;;
16512;SDS011;8369;48.030;11.598;2023-10-31T12:18:45;3.00;;;1.50;;
16512;SDS011;8369;48.030;11.598;2023-10-31T12:21:38;2.37;;;1.70;;
16512;SDS011;8369;48.030;11.598;2023-10-31T12:24:09;1.90;;;1.63;;
16512;SDS011;8369;48.030;11.598;2023-10-31T12:26:37;3.37;;;1.90;;
16512;SDS011;8369;48.030;11.598;2023-10-31T12:29:16;2.57;;;1.87;;
16512;SDS011;8369;48.030;11.598;2023-10-31T12:31:46;4.17;;;1.83;;
16512;SDS011;8369;48.030;11.598;2023-10-31T12:34:22;3.23;;;1.70;;
16512;SDS011;8369;48.030;11.598;2023-10-31T12:36:50;2.27;;;1.40;;
16512;SDS011;8369;48.030;11.598;2023-10-31T12:39:20;3.20;;;1.17;;
16512;SDS011;8369;48.030;11.598;2023-10-31T12:41:48;0.90;;;0.90;;
16512;SDS011;8369;48.030;11.598;2023-10-31T12:44:16;2.57;;;1.00;;
16512;SDS011;8369;48.030;11.598;2023-10-31T12:46:46;1.03;;;0.90;;
16512;SDS011;8369;48.030;11.598;2023-10-31T12:49:12;0.80;;;0.80;;
16512;SDS011;8369;48.030;11.598;2023-10-31T12:54:38;0.87;;;0.87;;
16512;SDS011;8369;48.030;11.598;2023-10-31T12:57:06;2.50;;;1.40;;
16512;SDS011;8369;48.030;11.598;2023-10-31T12:59:33;2.90;;;1.80;;
16512;SDS011;8369;48.030;11.598;2023-10-31T13:02:01;4.10;;;1.80;;
16512;SDS011;8369;48.030;11.598;2023-10-31T13:04:31;1.87;;;1.40;;
16512;SDS011;8369;48.030;11.598;2023-10-31T13:06:59;1.60;;;1.23;;
16512;SDS011;8369;48.030;11.598;2023-10-31T13:09:29;2.23;;;1.00;;
16512;SDS011;8369;48.030;11.598;2023-10-31T13:12:03;1.00;;;1.00;;
16512;SDS011;8369;48.030;11.598;2023-10-31T13:14:31;2.13;;;1.40;;
16512;SDS011;8369;48.030;11.598;2023-10-31T13:16:58;5.50;;;2.10;;
16512;SDS011;8369;48.030;11.598;2023-10-31T13:19:24;3.50;;;2.27;;
16512;SDS011;8369;48.030;11.598;2023-10-31T13:21:50;3.83;;;2.03;;
16512;SDS011;8369;48.030;11.598;2023-10-31T13:24:16;1.93;;;1.53;;
16512;SDS011;8369;48.030;11.598;2023-10-31T13:26:43;2.33;;;1.60;;
16512;SDS011;8369;48.030;11.598;2023-10-31T13:29:16;2.43;;;1.80;;
16512;SDS011;8369;48.030;11.598;2023-10-31T13:31:43;1.60;;;1.50;;
16512;SDS011;8369;48.030;11.598;2023-10-31T13:34:09;6.43;;;1.50;;
16512;SDS011;8369;48.030;11.598;2023-10-31T13:36:36;1.50;;;1.40;;
16512;SDS011;8369;48.030;11.598;2023-10-31T13:39:03;3.17;;;1.67;;
16512;SDS011;8369;48.030;11.598;2023-10-31T13:41:29;2.63;;;1.50;;
16512;SDS011;8369;48.030;11.598;2023-10-31T13:43:55;1.67;;;1.20;;
16512;SDS011;8369;48.030;11.598;2023-10-31T13:46:21;1.27;;;1.17;;
16512;SDS011;8369;48.030;11.598;2023-10-31T13:48:49;2.50;;;1.30;;
16512;SDS011;8369;48.030;11.598;2023-10-31T13:51:15;1.30;;;1.00;;
16512;SDS011;8369;48.030;11.598;2023-10-31T13:53:42;1.53;;;1.20;;
16512;SDS011;8369;48.030;11.598;2023-10-31T13:56:09;1.60;;;1.30;;
16512;SDS011;8369;48.030;11.598;2023-10-31T13:58:35;1.57;;;1.00;;
16512;SDS011;8369;48.030;11.598;2023-10-31T14:01:01;0.90;;;0.90;;
16512;SDS011;8369;48.030;11.598;2023-10-31T14:03:27;0.97;;;0.90;;
16512;SDS011;8369;48.030;11.598;2023-10-31T14:05:53;1.87;;;1.30;;
16512;SDS011;8369;48.030;11.598;2023-10-31T14:08:20;1.57;;;1.17;;
16512;SDS011;8369;48.030;11.598;2023-10-31T14:10:46;0.97;;;0.90;;
16512;SDS011;8369;48.030;11.598;2023-10-31T14:13:14;0.80;;;0.80;;
16512;SDS011;8369;48.030;11.598;2023-10-31T14:15:40;1.47;;;0.90;;
16512;SDS011;8369;48.030;11.598;2023-10-31T14:18:06;1.07;;;1.03;;
16512;SDS011;8369;48.030;11.598;2023-10-31T14:20:33;4.50;;;1.50;;
16512;SDS011;8369;48.030;11.598;2023-10-31T14:23:00;1.27;;;1.20;;
16512;SDS011;8369;48.030;11.598;2023-10-31T14:25:26;1.30;;;1.20;;
16512;SDS011;8369;48.030;11.598;2023-10-31T14:27:52;2.30;;;1.33;;
16512;SDS011;8369;48.030;11.598;2023-10-31T14:30:19;1.10;;;1.00;;
16512;SDS011;8369;48.030;11.598;2023-10-31T14:32:45;1.30;;;1.20;;
16512;SDS011;8369;48.030;11.598;2023-10-31T14:35:11;3.30;;;1.70;;
16512;SDS011;8369;48.030;11.598;2023-10-31T14:37:37;4.00;;;2.63;;
16512;SDS011;8369;48.030;11.598;2023-10-31T14:40:04;13.37;;;3.87;;
16512;SDS011;8369;48.030;11.598;2023-10-31T14:42:31;7.37;;;3.90;;
16512;SDS011;8369;48.030;11.598;2023-10-31T14:44:57;4.77;;;3.43;;
16512;SDS011;8369;48.030;11.598;2023-10-31T14:47:23;4.30;;;2.53;;
16512;SDS011;8369;48.030;11.598;2023-10-31T14:49:49;5.50;;;3.10;;
16512;SDS011;8369;48.030;11.598;2023-10-31T14:52:15;4.50;;;2.77;;
16512;SDS011;8369;48.030;11.598;2023-10-31T14:54:42;2.07;;;1.80;;